sensor_id;sensor_type;location;lat;lon;timestamp;pressure;altitude;pressure_sealevel;temperature;humidity
35151;BME280;55720;51.972;4.624;2022-11-09T00:00:20;100189.72;;;14.11;100.00
35151;BME280;55720;51.972;4.624;2022-11-09T00:02:46;100194.66;;;13.99;100.00
35151;BME280;55720;51.972;4.624;2022-11-09T00:05:11;100198.47;;;13.91;100.00
35151;BME280;55720;51.972;4.624;2022-11-09T00:07:36;100197.16;;;13.81;100.00
35151;BME280;55720;51.972;4.624;2022-11-09T00:10:02;100188.75;;;13.74;100.00
35151;BME280;55720;51.972;4.624;2022-11-09T00:12:28;100198.94;;;13.70;100.00
35151;BME280;55720;51.972;4.624;2022-11-09T00:14:53;100189.34;;;13.64;100.00
35151;BME280;55720;51.972;4.624;2022-11-09T00:17:18;100195.94;;;13.56;100.00
35151;BME280;55720;51.972;4.624;2022-11-09T00:19:44;100193.28;;;13.40;100.00
35151;BME280;55720;51.972;4.624;2022-11-09T00:22:09;100188.13;;;13.39;100.00
35151;BME280;55720;51.972;4.624;2022-11-09T00:24:34;100182.59;;;13.39;100.00
35151;BME280;55720;51.972;4.624;2022-11-09T00:27:00;100181.38;;;13.36;100.00
35151;BME280;55720;51.972;4.624;2022-11-09T00:29:25;100198.31;;;13.35;100.00
35151;BME280;55720;51.972;4.624;2022-11-09T00:31:50;100195.09;;;13.32;100.00
35151;BME280;55720;51.972;4.624;2022-11-09T00:34:16;100191.34;;;13.21;100.00
35151;BME280;55720;51.972;4.624;2022-11-09T00:36:41;100194.50;;;13.20;100.00
35151;BME280;55720;51.972;4.624;2022-11-09T00:39:07;100186.50;;;13.15;100.00
35151;BME280;55720;51.972;4.624;2022-11-09T00:41:32;100191.22;;;13.14;100.00
35151;BME280;55720;51.972;4.624;2022-11-09T00:44:01;100187.25;;;13.12;100.00
35151;BME280;55720;51.972;4.624;2022-11-09T00:46:26;100188.78;;;13.09;100.00
35151;BME280;55720;51.972;4.624;2022-11-09T00:48:53;100183.59;;;13.08;100.00
35151;BME280;55720;51.972;4.624;2022-11-09T00:51:20;100193.97;;;12.95;100.00
35151;BME280;55720;51.972;4.624;2022-11-09T00:53:46;100187.38;;;13.00;100.00
35151;BME280;55720;51.972;4.624;2022-11-09T00:56:12;100189.63;;;12.94;100.00
35151;BME280;55720;51.972;4.624;2022-11-09T00:58:38;100179.91;;;13.00;100.00
35151;BME280;55720;51.972;4.624;2022-11-09T01:01:15;100176.66;;;12.95;100.00
35151;BME280;55720;51.972;4.624;2022-11-09T01:03:42;100172.50;;;12.85;100.00
35151;BME280;55720;51.972;4.624;2022-11-09T01:06:08;100185.56;;;12.88;100.00
35151;BME280;55720;51.972;4.624;2022-11-09T01:08:37;100184.06;;;12.91;100.00
35151;BME280;55720;51.972;4.624;2022-11-09T01:11:07;100190.44;;;12.95;100.00
35151;BME280;55720;51.972;4.624;2022-11-09T01:13:34;100186.75;;;12.87;100.00
35151;BME280;55720;51.972;4.624;2022-11-09T01:16:07;100195.94;;;12.95;100.00
35151;BME280;55720;51.972;4.624;2022-11-09T01:18:33;100192.59;;;12.86;100.00
35151;BME280;55720;51.972;4.624;2022-11-09T01:21:01;100187.91;;;12.86;100.00
35151;BME280;55720;51.972;4.624;2022-11-09T01:23:27;100191.94;;;12.92;100.00
35151;BME280;55720;51.972;4.624;2022-11-09T01:26:06;100185.75;;;12.99;100.00
35151;BME280;55720;51.972;4.624;2022-11-09T01:28:32;100184.41;;;13.08;100.00
35151;BME280;55720;51.972;4.624;2022-11-09T01:31:02;100191.69;;;13.16;100.00
35151;BME280;55720;51.972;4.624;2022-11-09T01:33:29;100190.94;;;13.19;100.00
35151;BME280;55720;51.972;4.624;2022-11-09T01:35:54;100205.53;;;13.20;100.00
35151;BME280;55720;51.972;4.624;2022-11-09T01:38:25;100209.00;;;13.17;100.00
35151;BME280;55720;51.972;4.624;2022-11-09T01:40:50;100204.94;;;13.11;100.00
35151;BME280;55720;51.972;4.624;2022-11-09T01:43:20;100208.19;;;12.97;100.00
35151;BME280;55720;51.972;4.624;2022-11-09T01:48:44;100195.16;;;12.94;100.00
35151;BME280;55720;51.972;4.624;2022-11-09T01:51:33;100182.88;;;12.92;100.00
35151;BME280;55720;51.972;4.624;2022-11-09T01:54:03;100186.00;;;12.90;100.00
35151;BME280;55720;51.972;4.624;2022-11-09T01:56:30;100190.66;;;13.05;100.00
35151;BME280;55720;51.972;4.624;2022-11-09T01:59:02;100194.44;;;13.16;100.00
35151;BME280;55720;51.972;4.624;2022-11-09T02:01:28;100197.31;;;13.23;100.00
35151;BME280;55720;51.972;4.624;2022-11-09T02:03:57;100193.75;;;13.23;100.00
35151;BME280;55720;51.972;4.624;2022-11-09T02:06:26;100201.16;;;13.19;100.00
35151;BME280;55720;51.972;4.624;2022-11-09T02:08:55;100197.59;;;13.18;100.00
35151;BME280;55720;51.972;4.624;2022-11-09T02:11:22;100195.94;;;13.14;100.00
35151;BME280;55720;51.972;4.624;2022-11-09T02:13:54;100187.59;;;13.10;100.00
35151;BME280;55720;51.972;4.624;2022-11-09T02:16:21;100186.28;;;13.04;100.00
35151;BME280;55720;51.972;4.624;2022-11-09T02:18:51;100189.84;;;13.05;100.00
35151;BME280;55720;51.972;4.624;2022-11-09T02:21:17;100196.44;;;13.00;100.00
35151;BME280;55720;51.972;4.624;2022-11-09T02:23:42;100192.00;;;12.96;100.00
35151;BME280;55720;51.972;4.624;2022-11-09T02:26:16;100186.56;;;12.99;100.00
35151;BME280;55720;51.972;4.624;2022-11-09T02:28:43;100200.06;;;13.04;100.00
35151;BME280;55720;51.972;4.624;2022-11-09T02:31:12;100213.84;;;13.04;100.00
35151;BME280;55720;51.972;4.624;2022-11-09T02:33:52;100217.75;;;13.03;100.00
35151;BME280;55720;51.972;4.624;2022-11-09T02:36:20;100211.03;;;13.01;100.00
35151;BME280;55720;51.972;4.624;2022-11-09T02:38:45;100202.38;;;13.02;100.00
35151;BME280;55720;51.972;4.624;2022-11-09T02:41:11;100199.47;;;12.95;100.00
35151;BME280;55720;51.972;4.624;2022-11-09T02:43:37;100209.94;;;12.86;100.00
35151;BME280;55720;51.972;4.624;2022-11-09T02:46:04;100205.00;;;12.76;100.00
35151;BME280;55720;51.972;4.624;2022-11-09T02:48:29;100204.28;;;12.79;100.00
35151;BME280;55720;51.972;4.624;2022-11-09T02:50:54;100194.06;;;12.79;100.00
35151;BME280;55720;51.972;4.624;2022-11-09T02:53:20;100194.66;;;12.69;100.00
35151;BME280;55720;51.972;4.624;2022-11-09T02:55:45;100189.84;;;12.66;100.00
35151;BME280;55720;51.972;4.624;2022-11-09T02:58:10;100191.09;;;12.69;100.00
35151;BME280;55720;51.972;4.624;2022-11-09T03:00:36;100204.72;;;12.62;100.00
35151;BME280;55720;51.972;4.624;2022-11-09T03:03:02;100200.78;;;12.63;100.00
35151;BME280;55720;51.972;4.624;2022-11-09T03:05:28;100189.34;;;12.61;100.00
35151;BME280;55720;51.972;4.624;2022-11-09T03:07:53;100188.75;;;12.52;100.00
35151;BME280;55720;51.972;4.624;2022-11-09T03:10:19;100197.00;;;12.52;100.00
35151;BME280;55720;51.972;4.624;2022-11-09T03:12:44;100195.34;;;12.47;100.00
35151;BME280;55720;51.972;4.624;2022-11-09T03:15:10;100198.09;;;12.47;100.00
35151;BME280;55720;51.972;4.624;2022-11-09T03:17:35;100201.13;;;12.42;100.00
35151;BME280;55720;51.972;4.624;2022-11-09T03:20:01;100204.53;;;12.36;100.00
35151;BME280;55720;51.972;4.624;2022-11-09T03:22:27;100213.94;;;12.34;100.00
35151;BME280;55720;51.972;4.624;2022-11-09T03:24:52;100213.78;;;12.27;100.00
35151;BME280;55720;51.972;4.624;2022-11-09T03:27:17;100213.34;;;12.25;100.00
35151;BME280;55720;51.972;4.624;2022-11-09T03:29:43;100226.75;;;12.27;100.00
35151;BME280;55720;51.972;4.624;2022-11-09T03:32:08;100221.31;;;12.30;100.00
35151;BME280;55720;51.972;4.624;2022-11-09T03:34:34;100236.09;;;12.22;100.00
35151;BME280;55720;51.972;4.624;2022-11-09T03:36:59;100223.72;;;12.32;100.00
35151;BME280;55720;51.972;4.624;2022-11-09T03:39:25;100227.91;;;12.26;100.00
35151;BME280;55720;51.972;4.624;2022-11-09T03:41:50;100229.06;;;12.25;100.00
35151;BME280;55720;51.972;4.624;2022-11-09T03:44:15;100231.34;;;12.23;100.00
35151;BME280;55720;51.972;4.624;2022-11-09T03:46:41;100237.31;;;12.25;100.00
35151;BME280;55720;51.972;4.624;2022-11-09T03:49:06;100232.25;;;12.27;100.00
35151;BME280;55720;51.972;4.624;2022-11-09T03:51:32;100237.25;;;12.21;100.00
35151;BME280;55720;51.972;4.624;2022-11-09T03:53:57;100232.16;;;12.23;100.00
35151;BME280;55720;51.972;4.624;2022-11-09T03:56:23;100241.38;;;12.31;100.00
35151;BME280;55720;51.972;4.624;2022-11-09T03:58:48;100240.88;;;12.25;100.00
35151;BME280;55720;51.972;4.624;2022-11-09T04:01:14;100248.34;;;12.25;100.00
35151;BME280;55720;51.972;4.624;2022-11-09T04:03:39;100253.47;;;12.26;100.00
35151;BME280;55720;51.972;4.624;2022-11-09T04:06:05;100256.84;;;12.36;100.00
35151;BME280;55720;51.972;4.624;2022-11-09T04:08:30;100262.59;;;12.30;100.00
35151;BME280;55720;51.972;4.624;2022-11-09T04:10:55;100261.28;;;12.40;100.00
35151;BME280;55720;51.972;4.624;2022-11-09T04:13:21;100265.97;;;12.40;100.00
35151;BME280;55720;51.972;4.624;2022-11-09T04:15:46;100253.25;;;12.51;100.00
35151;BME280;55720;51.972;4.624;2022-11-09T04:18:13;100256.88;;;12.55;100.00
35151;BME280;55720;51.972;4.624;2022-11-09T04:20:39;100252.16;;;12.55;100.00
35151;BME280;55720;51.972;4.624;2022-11-09T04:23:06;100269.94;;;12.58;100.00
35151;BME280;55720;51.972;4.624;2022-11-09T04:25:34;100272.16;;;12.52;100.00
35151;BME280;55720;51.972;4.624;2022-11-09T04:28:01;100271.28;;;12.48;100.00
35151;BME280;55720;51.972;4.624;2022-11-09T04:30:28;100270.84;;;12.46;100.00
35151;BME280;55720;51.972;4.624;2022-11-09T04:32:58;100274.81;;;12.49;100.00
35151;BME280;55720;51.972;4.624;2022-11-09T04:35:24;100277.72;;;12.37;100.00
35151;BME280;55720;51.972;4.624;2022-11-09T04:40:22;100279.59;;;12.17;100.00
35151;BME280;55720;51.972;4.624;2022-11-09T04:42:48;100290.16;;;12.15;100.00
35151;BME280;55720;51.972;4.624;2022-11-09T04:45:14;100285.34;;;12.12;100.00
35151;BME280;55720;51.972;4.624;2022-11-09T04:47:39;100282.88;;;12.22;100.00
35151;BME280;55720;51.972;4.624;2022-11-09T04:50:05;100288.63;;;12.33;100.00
35151;BME280;55720;51.972;4.624;2022-11-09T04:52:31;100292.16;;;12.33;100.00
35151;BME280;55720;51.972;4.624;2022-11-09T04:54:56;100280.38;;;12.33;100.00
35151;BME280;55720;51.972;4.624;2022-11-09T04:57:22;100302.50;;;12.37;100.00
35151;BME280;55720;51.972;4.624;2022-11-09T04:59:47;100300.63;;;12.41;100.00
35151;BME280;55720;51.972;4.624;2022-11-09T05:02:12;100297.41;;;12.39;100.00
35151;BME280;55720;51.972;4.624;2022-11-09T05:04:38;100294.78;;;12.11;100.00
35151;BME280;55720;51.972;4.624;2022-11-09T05:07:03;100301.31;;;11.91;100.00
35151;BME280;55720;51.972;4.624;2022-11-09T05:09:28;100302.13;;;11.75;100.00
35151;BME280;55720;51.972;4.624;2022-11-09T05:11:54;100304.44;;;11.61;100.00
35151;BME280;55720;51.972;4.624;2022-11-09T05:14:19;100316.06;;;11.55;100.00
35151;BME280;55720;51.972;4.624;2022-11-09T05:16:44;100329.38;;;11.53;100.00
35151;BME280;55720;51.972;4.624;2022-11-09T05:19:10;100331.84;;;11.42;100.00
35151;BME280;55720;51.972;4.624;2022-11-09T05:21:35;100355.25;;;11.52;100.00
35151;BME280;55720;51.972;4.624;2022-11-09T05:24:00;100381.84;;;11.48;100.00
35151;BME280;55720;51.972;4.624;2022-11-09T05:26:29;100384.78;;;11.55;100.00
35151;BME280;55720;51.972;4.624;2022-11-09T05:28:55;100398.09;;;11.53;100.00
35151;BME280;55720;51.972;4.624;2022-11-09T05:31:22;100417.34;;;11.53;100.00
35151;BME280;55720;51.972;4.624;2022-11-09T05:33:48;100420.53;;;11.55;100.00
35151;BME280;55720;51.972;4.624;2022-11-09T05:36:15;100426.41;;;11.53;100.00
35151;BME280;55720;51.972;4.624;2022-11-09T05:38:40;100432.13;;;11.48;100.00
35151;BME280;55720;51.972;4.624;2022-11-09T05:41:05;100438.56;;;11.40;100.00
35151;BME280;55720;51.972;4.624;2022-11-09T05:43:31;100443.03;;;11.45;100.00
35151;BME280;55720;51.972;4.624;2022-11-09T05:45:56;100449.34;;;11.45;100.00
35151;BME280;55720;51.972;4.624;2022-11-09T05:48:21;100458.63;;;11.41;100.00
35151;BME280;55720;51.972;4.624;2022-11-09T05:50:47;100456.66;;;11.41;100.00
35151;BME280;55720;51.972;4.624;2022-11-09T05:53:12;100466.28;;;11.47;100.00
35151;BME280;55720;51.972;4.624;2022-11-09T05:55:38;100465.59;;;11.50;100.00
35151;BME280;55720;51.972;4.624;2022-11-09T05:58:03;100459.63;;;11.48;100.00
35151;BME280;55720;51.972;4.624;2022-11-09T06:00:29;100469.81;;;11.48;100.00
35151;BME280;55720;51.972;4.624;2022-11-09T06:03:04;100464.75;;;11.62;100.00
35151;BME280;55720;51.972;4.624;2022-11-09T06:05:31;100464.41;;;11.63;100.00
35151;BME280;55720;51.972;4.624;2022-11-09T06:08:04;100462.09;;;11.65;100.00
35151;BME280;55720;51.972;4.624;2022-11-09T06:10:29;100458.91;;;11.63;100.00
35151;BME280;55720;51.972;4.624;2022-11-09T06:12:55;100459.25;;;11.62;100.00
35151;BME280;55720;51.972;4.624;2022-11-09T06:15:20;100459.94;;;11.59;100.00
35151;BME280;55720;51.972;4.624;2022-11-09T06:17:53;100461.56;;;11.60;100.00
35151;BME280;55720;51.972;4.624;2022-11-09T06:20:19;100459.25;;;11.62;100.00
35151;BME280;55720;51.972;4.624;2022-11-09T06:22:52;100456.84;;;11.60;100.00
35151;BME280;55720;51.972;4.624;2022-11-09T06:25:18;100470.03;;;11.55;100.00
35151;BME280;55720;51.972;4.624;2022-11-09T06:27:43;100459.13;;;11.58;100.00
35151;BME280;55720;51.972;4.624;2022-11-09T06:30:09;100469.81;;;11.72;100.00
35151;BME280;55720;51.972;4.624;2022-11-09T06:32:35;100464.72;;;11.86;100.00
35151;BME280;55720;51.972;4.624;2022-11-09T06:35:00;100458.50;;;11.89;100.00
35151;BME280;55720;51.972;4.624;2022-11-09T06:37:26;100435.00;;;11.92;100.00
35151;BME280;55720;51.972;4.624;2022-11-09T06:39:51;100433.47;;;11.94;100.00
35151;BME280;55720;51.972;4.624;2022-11-09T06:42:17;100421.69;;;11.94;100.00
35151;BME280;55720;51.972;4.624;2022-11-09T06:44:42;100414.59;;;11.93;100.00
35151;BME280;55720;51.972;4.624;2022-11-09T06:47:07;100424.78;;;11.92;100.00
35151;BME280;55720;51.972;4.624;2022-11-09T06:49:33;100422.56;;;11.98;100.00
35151;BME280;55720;51.972;4.624;2022-11-09T06:51:58;100423.03;;;12.00;100.00
35151;BME280;55720;51.972;4.624;2022-11-09T06:54:23;100424.06;;;11.95;100.00
35151;BME280;55720;51.972;4.624;2022-11-09T06:56:49;100428.34;;;11.93;100.00
35151;BME280;55720;51.972;4.624;2022-11-09T06:59:14;100425.94;;;11.91;100.00
35151;BME280;55720;51.972;4.624;2022-11-09T07:01:39;100425.22;;;11.94;100.00
35151;BME280;55720;51.972;4.624;2022-11-09T07:04:05;100452.19;;;11.89;100.00
35151;BME280;55720;51.972;4.624;2022-11-09T07:06:30;100439.16;;;11.86;100.00
35151;BME280;55720;51.972;4.624;2022-11-09T07:08:56;100448.00;;;11.79;100.00
35151;BME280;55720;51.972;4.624;2022-11-09T07:11:21;100449.59;;;11.80;100.00
35151;BME280;55720;51.972;4.624;2022-11-09T07:13:47;100452.00;;;11.81;100.00
35151;BME280;55720;51.972;4.624;2022-11-09T07:16:14;100446.84;;;11.80;100.00
35151;BME280;55720;51.972;4.624;2022-11-09T07:18:44;100450.50;;;11.84;100.00
35151;BME280;55720;51.972;4.624;2022-11-09T07:21:11;100439.94;;;11.86;100.00
35151;BME280;55720;51.972;4.624;2022-11-09T07:23:36;100442.81;;;11.90;100.00
35151;BME280;55720;51.972;4.624;2022-11-09T07:26:02;100445.47;;;11.86;100.00
35151;BME280;55720;51.972;4.624;2022-11-09T07:28:28;100452.53;;;11.87;100.00
35151;BME280;55720;51.972;4.624;2022-11-09T07:30:56;100445.47;;;11.86;100.00
35151;BME280;55720;51.972;4.624;2022-11-09T07:33:21;100459.41;;;11.93;100.00
35151;BME280;55720;51.972;4.624;2022-11-09T07:35:47;100447.00;;;11.99;100.00
35151;BME280;55720;51.972;4.624;2022-11-09T07:38:13;100437.13;;;11.98;100.00
35151;BME280;55720;51.972;4.624;2022-11-09T07:40:40;100436.88;;;12.03;100.00
35151;BME280;55720;51.972;4.624;2022-11-09T07:43:05;100427.50;;;12.04;100.00
35151;BME280;55720;51.972;4.624;2022-11-09T07:45:32;100433.19;;;12.11;100.00
35151;BME280;55720;51.972;4.624;2022-11-09T07:48:00;100424.84;;;12.23;100.00
35151;BME280;55720;51.972;4.624;2022-11-09T07:50:27;100419.50;;;12.30;100.00
35151;BME280;55720;51.972;4.624;2022-11-09T07:52:56;100416.16;;;12.37;100.00
35151;BME280;55720;51.972;4.624;2022-11-09T07:55:25;100406.03;;;12.25;100.00
35151;BME280;55720;51.972;4.624;2022-11-09T07:57:58;100406.09;;;12.13;100.00
35151;BME280;55720;51.972;4.624;2022-11-09T08:00:25;100417.91;;;12.14;100.00
35151;BME280;55720;51.972;4.624;2022-11-09T08:02:51;100413.44;;;12.09;100.00
35151;BME280;55720;51.972;4.624;2022-11-09T08:05:17;100417.09;;;12.13;100.00
35151;BME280;55720;51.972;4.624;2022-11-09T08:07:42;100413.91;;;12.27;100.00
35151;BME280;55720;51.972;4.624;2022-11-09T08:10:08;100408.25;;;12.36;100.00
35151;BME280;55720;51.972;4.624;2022-11-09T08:12:34;100401.88;;;12.47;100.00
35151;BME280;55720;51.972;4.624;2022-11-09T08:14:59;100388.22;;;12.70;100.00
35151;BME280;55720;51.972;4.624;2022-11-09T08:17:28;100395.50;;;12.94;100.00
35151;BME280;55720;51.972;4.624;2022-11-09T08:19:53;100382.03;;;13.08;100.00
35151;BME280;55720;51.972;4.624;2022-11-09T08:22:18;100381.88;;;13.16;100.00
35151;BME280;55720;51.972;4.624;2022-11-09T08:24:44;100379.47;;;13.15;100.00
35151;BME280;55720;51.972;4.624;2022-11-09T08:27:09;100375.47;;;12.97;100.00
35151;BME280;55720;51.972;4.624;2022-11-09T08:29:34;100370.38;;;12.79;100.00
35151;BME280;55720;51.972;4.624;2022-11-09T08:32:00;100373.59;;;12.66;100.00
35151;BME280;55720;51.972;4.624;2022-11-09T08:34:25;100375.72;;;12.57;100.00
35151;BME280;55720;51.972;4.624;2022-11-09T08:36:51;100385.41;;;12.66;100.00
35151;BME280;55720;51.972;4.624;2022-11-09T08:39:17;100386.81;;;12.76;100.00
35151;BME280;55720;51.972;4.624;2022-11-09T08:41:42;100387.63;;;12.76;100.00
35151;BME280;55720;51.972;4.624;2022-11-09T08:44:07;100394.53;;;12.70;100.00
35151;BME280;55720;51.972;4.624;2022-11-09T08:46:33;100383.09;;;12.84;100.00
35151;BME280;55720;51.972;4.624;2022-11-09T08:48:58;100377.03;;;12.78;100.00
35151;BME280;55720;51.972;4.624;2022-11-09T08:51:24;100385.53;;;12.89;100.00
35151;BME280;55720;51.972;4.624;2022-11-09T08:53:49;100369.25;;;13.15;100.00
35151;BME280;55720;51.972;4.624;2022-11-09T08:56:15;100387.56;;;13.08;100.00
35151;BME280;55720;51.972;4.624;2022-11-09T08:58:43;100373.22;;;13.02;100.00
35151;BME280;55720;51.972;4.624;2022-11-09T09:01:09;100377.31;;;13.08;100.00
35151;BME280;55720;51.972;4.624;2022-11-09T09:03:34;100374.84;;;13.03;100.00
35151;BME280;55720;51.972;4.624;2022-11-09T09:06:04;100370.41;;;13.14;100.00
35151;BME280;55720;51.972;4.624;2022-11-09T09:08:30;100373.69;;;13.20;100.00
35151;BME280;55720;51.972;4.624;2022-11-09T09:10:55;100373.22;;;13.18;100.00
35151;BME280;55720;51.972;4.624;2022-11-09T09:13:20;100386.94;;;13.14;100.00
35151;BME280;55720;51.972;4.624;2022-11-09T09:15:47;100382.84;;;13.08;100.00
35151;BME280;55720;51.972;4.624;2022-11-09T09:18:12;100386.34;;;13.24;100.00
35151;BME280;55720;51.972;4.624;2022-11-09T09:20:38;100382.03;;;13.23;100.00
35151;BME280;55720;51.972;4.624;2022-11-09T09:23:03;100387.16;;;13.25;100.00
35151;BME280;55720;51.972;4.624;2022-11-09T09:25:29;100384.91;;;13.11;100.00
35151;BME280;55720;51.972;4.624;2022-11-09T09:27:54;100378.00;;;13.21;100.00
35151;BME280;55720;51.972;4.624;2022-11-09T09:30:19;100383.81;;;13.35;100.00
35151;BME280;55720;51.972;4.624;2022-11-09T09:32:45;100384.44;;;13.44;100.00
35151;BME280;55720;51.972;4.624;2022-11-09T09:35:11;100378.53;;;13.65;100.00
35151;BME280;55720;51.972;4.624;2022-11-09T09:37:36;100388.28;;;13.78;100.00
35151;BME280;55720;51.972;4.624;2022-11-09T09:40:02;100401.47;;;13.69;100.00
35151;BME280;55720;51.972;4.624;2022-11-09T09:42:34;100399.44;;;13.47;100.00
35151;BME280;55720;51.972;4.624;2022-11-09T09:45:09;100407.50;;;13.55;100.00
35151;BME280;55720;51.972;4.624;2022-11-09T09:50:18;100413.69;;;13.49;100.00
35151;BME280;55720;51.972;4.624;2022-11-09T09:52:59;100437.19;;;13.62;100.00
35151;BME280;55720;51.972;4.624;2022-11-09T09:57:53;100436.94;;;13.67;100.00
35151;BME280;55720;51.972;4.624;2022-11-09T10:00:25;100452.75;;;13.70;100.00
35151;BME280;55720;51.972;4.624;2022-11-09T10:02:52;100459.84;;;13.71;100.00
35151;BME280;55720;51.972;4.624;2022-11-09T10:05:18;100455.34;;;13.82;100.00
35151;BME280;55720;51.972;4.624;2022-11-09T10:13:23;100492.75;;;13.79;100.00
35151;BME280;55720;51.972;4.624;2022-11-09T10:21:37;100483.75;;;13.63;100.00
35151;BME280;55720;51.972;4.624;2022-11-09T10:24:42;100488.72;;;13.58;100.00
35151;BME280;55720;51.972;4.624;2022-11-09T10:26:59;100484.22;;;13.50;100.00
35151;BME280;55720;51.972;4.624;2022-11-09T10:29:34;100482.03;;;13.40;100.00
35151;BME280;55720;51.972;4.624;2022-11-09T10:32:17;100469.19;;;13.12;100.00
35151;BME280;55720;51.972;4.624;2022-11-09T10:35:02;100470.97;;;13.05;100.00
35151;BME280;55720;51.972;4.624;2022-11-09T10:37:39;100469.53;;;13.11;100.00
35151;BME280;55720;51.972;4.624;2022-11-09T10:42:35;100459.56;;;13.06;100.00
35151;BME280;55720;51.972;4.624;2022-11-09T10:45:10;100469.22;;;13.31;100.00
35151;BME280;55720;51.972;4.624;2022-11-09T10:47:47;100462.16;;;13.50;100.00
35151;BME280;55720;51.972;4.624;2022-11-09T10:50:27;100448.81;;;13.71;100.00
35151;BME280;55720;51.972;4.624;2022-11-09T10:53:13;100450.69;;;13.86;100.00
35151;BME280;55720;51.972;4.624;2022-11-09T10:55:55;100435.28;;;14.04;100.00
35151;BME280;55720;51.972;4.624;2022-11-09T10:58:52;100440.97;;;13.92;100.00
35151;BME280;55720;51.972;4.624;2022-11-09T11:01:34;100433.06;;;13.71;100.00
35151;BME280;55720;51.972;4.624;2022-11-09T11:04:18;100446.94;;;13.56;100.00
35151;BME280;55720;51.972;4.624;2022-11-09T11:06:44;100442.84;;;13.50;100.00
35151;BME280;55720;51.972;4.624;2022-11-09T11:11:37;100446.41;;;13.00;100.00
35151;BME280;55720;51.972;4.624;2022-11-09T11:14:26;100467.69;;;12.68;100.00
35151;BME280;55720;51.972;4.624;2022-11-09T11:16:53;100495.91;;;12.49;100.00
35151;BME280;55720;51.972;4.624;2022-11-09T11:19:37;100488.59;;;12.25;100.00
35151;BME280;55720;51.972;4.624;2022-11-09T11:24:53;100498.66;;;12.06;100.00
35151;BME280;55720;51.972;4.624;2022-11-09T11:30:24;100511.25;;;12.19;100.00
35151;BME280;55720;51.972;4.624;2022-11-09T11:32:56;100511.06;;;12.27;100.00
35151;BME280;55720;51.972;4.624;2022-11-09T11:35:32;100503.84;;;12.66;100.00
35151;BME280;55720;51.972;4.624;2022-11-09T11:41:01;100471.69;;;13.52;100.00
35151;BME280;55720;51.972;4.624;2022-11-09T11:46:34;100451.72;;;13.97;100.00
35151;BME280;55720;51.972;4.624;2022-11-09T11:51:42;100464.94;;;13.88;100.00
35151;BME280;55720;51.972;4.624;2022-11-09T11:57:26;100479.00;;;13.64;100.00
35151;BME280;55720;51.972;4.624;2022-11-09T12:00:17;100479.69;;;13.76;100.00
35151;BME280;55720;51.972;4.624;2022-11-09T12:15:58;100496.66;;;13.59;100.00
35151;BME280;55720;51.972;4.624;2022-11-09T12:18:36;100481.84;;;13.67;100.00
35151;BME280;55720;51.972;4.624;2022-11-09T12:21:14;100483.81;;;14.05;100.00
35151;BME280;55720;51.972;4.624;2022-11-09T12:37:12;100483.06;;;14.69;100.00
35151;BME280;55720;51.972;4.624;2022-11-09T12:39:46;100500.31;;;14.63;100.00
35151;BME280;55720;51.972;4.624;2022-11-09T12:47:37;100538.91;;;14.78;100.00
35151;BME280;55720;51.972;4.624;2022-11-09T12:50:04;100549.84;;;14.33;100.00
35151;BME280;55720;51.972;4.624;2022-11-09T12:52:30;100544.19;;;14.26;100.00
35151;BME280;55720;51.972;4.624;2022-11-09T12:54:59;100565.91;;;14.27;100.00
35151;BME280;55720;51.972;4.624;2022-11-09T12:57:28;100569.84;;;14.26;100.00
35151;BME280;55720;51.972;4.624;2022-11-09T12:59:56;100563.38;;;14.19;100.00
35151;BME280;55720;51.972;4.624;2022-11-09T13:02:27;100573.41;;;14.27;100.00
35151;BME280;55720;51.972;4.624;2022-11-09T13:04:59;100567.22;;;14.72;100.00
35151;BME280;55720;51.972;4.624;2022-11-09T13:07:46;100577.88;;;15.15;100.00
35151;BME280;55720;51.972;4.624;2022-11-09T13:10:31;100568.94;;;15.25;100.00
35151;BME280;55720;51.972;4.624;2022-11-09T13:15:38;100589.94;;;14.85;100.00
35151;BME280;55720;51.972;4.624;2022-11-09T13:20:54;100589.63;;;14.48;100.00
35151;BME280;55720;51.972;4.624;2022-11-09T13:23:38;100598.09;;;14.36;100.00
35151;BME280;55720;51.972;4.624;2022-11-09T13:26:04;100607.94;;;14.37;100.00
35151;BME280;55720;51.972;4.624;2022-11-09T13:30:58;100602.91;;;14.61;100.00
35151;BME280;55720;51.972;4.624;2022-11-09T13:33:34;100603.28;;;14.79;100.00
35151;BME280;55720;51.972;4.624;2022-11-09T13:38:32;100609.56;;;14.57;100.00
35151;BME280;55720;51.972;4.624;2022-11-09T13:40:59;100629.06;;;14.29;100.00
35151;BME280;55720;51.972;4.624;2022-11-09T13:43:33;100627.59;;;14.16;100.00
35151;BME280;55720;51.972;4.624;2022-11-09T13:46:23;100634.44;;;14.22;100.00
35151;BME280;55720;51.972;4.624;2022-11-09T13:48:50;100631.31;;;14.23;100.00
35151;BME280;55720;51.972;4.624;2022-11-09T13:51:22;100630.16;;;14.24;100.00
35151;BME280;55720;51.972;4.624;2022-11-09T13:53:51;100630.03;;;14.17;100.00
35151;BME280;55720;51.972;4.624;2022-11-09T13:58:46;100634.84;;;14.05;100.00
35151;BME280;55720;51.972;4.624;2022-11-09T14:01:34;100646.97;;;14.00;100.00
35151;BME280;55720;51.972;4.624;2022-11-09T14:04:00;100653.34;;;13.85;100.00
35151;BME280;55720;51.972;4.624;2022-11-09T14:06:29;100639.53;;;13.85;100.00
35151;BME280;55720;51.972;4.624;2022-11-09T14:08:56;100648.00;;;13.76;100.00
35151;BME280;55720;51.972;4.624;2022-11-09T14:12:02;100647.91;;;13.73;100.00
35151;BME280;55720;51.972;4.624;2022-11-09T14:19:48;100652.13;;;13.67;100.00